Terminal Aerodrome Forecast
Issued by NWS Omaha/Valley, NE

Home | Current Version | Previous Version | Graphics & Text | Print | Product List | Glossary On
Versions: 1 2 3 4 5 6 7 8 9 10 11 12 13 14 15 16 17 18 19 20 21 22 23 24 25 26 27 28 29 30 31 32 33 34 35 36 37 38 39 40 41 42 43 44 45 46
000
FTUS43 KOAX 110520
TAFOFK
TAF
KOFK 110520Z 1106/1206 25008KT P6SM BKN150
     FM110800 28011KT P6SM BKN150 WS020/31035KT
     FM111200 30014KT P6SM SCT250 WS020/31045KT
     FM111400 31018G26KT P6SM BKN050
     FM111700 32024G34KT P6SM BKN030 PROB30 1119/1123 4SM -SHRA
      OVC015
     FM120100 34016G24KT P6SM SCT025 BKN200=

USA.gov is the U.S. government's official web portal to all federal, state and local government web resources and services.